Time;durP1;ratioP1;P1;durP2;ratioP2;P2;SDS_P1;SDS_P2;PMS_P1;PMS_P2;Temp;Humidity;BMP_temperature;BMP_pressure;BME280_temperature;BME280_humidity;BME280_pressure;Samples;Min_cycle;Max_cycle;Signal;HPM_P1;HPM_P2
2021/06/07 00:02:11;;;;;;;8.18;4.17;;;;;;;16.72;69.14;100145.20;1743897;81;21564;-65
2021/06/07 00:04:38;;;;;;;6.97;4.30;;;;;;;16.74;69.12;100145.03;1744491;81;21061;-66
2021/06/07 00:07:08;;;;;;;6.25;4.25;;;;;;;16.77;68.98;100142.86;1720062;81;21037;-65
2021/06/07 00:09:37;;;;;;;7.05;3.92;;;;;;;16.86;68.76;100149.02;1750627;81;21152;-65
2021/06/07 00:12:09;;;;;;;7.12;3.67;;;;;;;16.90;68.56;100144.53;1742083;81;22309;-65
2021/06/07 00:14:36;;;;;;;6.92;4.12;;;;;;;16.90;68.63;100143.20;1718265;81;21109;-66
2021/06/07 00:17:03;;;;;;;9.05;4.30;;;;;;;16.86;68.71;100139.23;1725283;81;21079;-65
2021/06/07 00:19:31;;;;;;;9.23;4.08;;;;;;;16.82;68.81;100142.36;1720891;81;21051;-68
2021/06/07 00:21:58;;;;;;;9.83;4.28;;;;;;;16.77;68.97;100141.53;1749464;81;21054;-68
2021/06/07 00:24:25;;;;;;;8.50;3.70;;;;;;;16.78;68.87;100145.02;1743365;81;21101;-66
2021/06/07 00:26:51;;;;;;;7.83;3.70;;;;;;;16.82;68.74;100142.36;1720623;81;21484;-66
2021/06/07 00:29:18;;;;;;;8.65;4.45;;;;;;;16.85;68.77;100138.89;1745395;81;21055;-66
2021/06/07 00:31:46;;;;;;;6.70;4.50;;;;;;;16.86;68.75;100137.91;1743404;81;21045;-66
2021/06/07 00:34:13;;;;;;;7.87;4.83;;;;;;;16.84;68.56;100141.21;1742683;81;21658;-66
2021/06/07 00:36:39;;;;;;;8.63;4.97;;;;;;;16.81;68.50;100142.02;1716012;81;21050;-66
2021/06/07 00:39:11;;;;;;;8.28;4.87;;;;;;;16.77;68.47;100146.84;1746285;81;21097;-66
2021/06/07 00:41:38;;;;;;;6.72;4.87;;;;;;;16.69;68.51;100144.20;1711576;81;21067;-66
2021/06/07 00:44:09;;;;;;;7.05;4.40;;;;;;;16.63;68.59;100147.55;1750477;81;21567;-66
2021/06/07 00:46:35;;;;;;;8.15;4.42;;;;;;;16.58;68.66;100145.39;1747063;81;21524;-67
2021/06/07 00:49:03;;;;;;;7.35;4.72;;;;;;;16.53;68.88;100147.22;1722314;81;21209;-66
2021/06/07 00:51:29;;;;;;;8.30;5.05;;;;;;;16.51;69.02;100155.03;1751168;81;21023;-66
2021/06/07 00:53:55;;;;;;;7.67;5.22;;;;;;;16.42;69.29;100152.03;1744443;80;21117;-66
2021/06/07 00:56:22;;;;;;;7.40;5.05;;;;;;;16.29;69.54;100152.52;1741455;81;21045;-66
2021/06/07 00:58:50;;;;;;;7.35;4.78;;;;;;;16.20;69.76;100154.86;1745893;81;21093;-65
2021/06/07 01:01:23;;;;;;;7.10;4.97;;;;;;;16.11;69.99;100156.17;1742663;81;22002;-66
2021/06/07 01:03:52;;;;;;;7.15;5.00;;;;;;;16.04;70.20;100151.20;1743272;81;21019;-65
2021/06/07 01:06:19;;;;;;;8.28;5.22;;;;;;;16.04;70.31;100151.20;1739855;81;21115;-67
2021/06/07 01:08:45;;;;;;;7.00;5.20;;;;;;;16.01;70.36;100152.85;1745199;81;21038;-66
2021/06/07 01:11:12;;;;;;;8.38;4.50;;;;;;;15.96;70.53;100148.03;1719162;81;21090;-66
2021/06/07 01:13:40;;;;;;;9.20;5.62;;;;;;;15.89;70.69;100156.82;1742881;81;21151;-66
2021/06/07 01:16:06;;;;;;;8.78;5.65;;;;;;;15.81;70.85;100158.13;1746651;81;21015;-67
2021/06/07 01:18:33;;;;;;;7.83;5.33;;;;;;;15.74;71.01;100158.73;1747235;81;21060;-65
2021/06/07 01:21:09;;;;;;;7.22;4.30;;;;;;;15.75;70.99;100166.19;1721585;81;21113;-66
2021/06/07 01:23:37;;;;;;;7.62;5.10;;;;;;;15.79;70.87;100166.25;1742503;81;21105;-67
2021/06/07 01:26:05;;;;;;;8.53;5.47;;;;;;;15.82;70.70;100164.59;1741661;81;21646;-65
2021/06/07 01:28:31;;;;;;;7.72;4.78;;;;;;;15.81;70.64;100165.58;1747655;81;21341;-65
2021/06/07 01:30:58;;;;;;;9.15;5.40;;;;;;;15.80;70.64;100165.23;1744118;81;21069;-66
2021/06/07 01:33:25;;;;;;;7.42;4.90;;;;;;;15.79;70.55;100169.72;1739389;81;21074;-66
2021/06/07 01:35:58;;;;;;;7.72;5.20;;;;;;;15.81;70.55;100170.06;1745852;80;21627;-66
2021/06/07 01:38:26;;;;;;;10.00;4.95;;;;;;;15.82;70.48;100171.23;1746547;81;21532;-67
2021/06/07 01:40:59;;;;;;;7.92;5.03;;;;;;;15.87;70.28;100170.72;1722011;81;21106;-66
2021/06/07 01:43:26;;;;;;;9.20;4.70;;;;;;;15.94;70.03;100171.75;1739706;81;22384;-68
2021/06/07 01:45:53;;;;;;;8.05;4.60;;;;;;;15.97;69.93;100168.78;1750158;81;21028;-68
2021/06/07 01:48:20;;;;;;;7.20;4.95;;;;;;;15.96;69.94;100175.07;1746459;81;21023;-67
2021/06/07 01:50:47;;;;;;;7.78;5.35;;;;;;;15.91;70.03;100172.08;1718476;81;21543;-66
2021/06/07 01:53:15;;;;;;;7.70;5.08;;;;;;;15.86;70.15;100175.20;1726772;81;21063;-67
2021/06/07 01:55:47;;;;;;;11.10;4.97;;;;;;;15.79;70.21;100182.16;1743053;81;21562;-66
2021/06/07 01:58:16;;;;;;;8.25;5.05;;;;;;;15.69;70.29;100172.16;1746043;81;21817;-66
2021/06/07 02:00:53;;;;;;;8.60;5.12;;;;;;;15.66;70.33;100175.95;1746252;81;21043;-67
2021/06/07 02:03:20;;;;;;;7.70;4.40;;;;;;;15.68;70.25;100176.61;1721617;81;21830;-67
2021/06/07 02:05:52;;;;;;;7.55;4.62;;;;;;;15.73;70.23;100176.13;1739766;81;21368;-68
2021/06/07 02:08:20;;;;;;;7.30;4.80;;;;;;;15.79;70.27;100183.48;1752338;81;21047;-67
2021/06/07 02:10:52;;;;;;;10.20;5.47;;;;;;;15.83;70.23;100181.34;1721698;81;21055;-67
2021/06/07 02:13:18;;;;;;;8.00;5.10;;;;;;;15.85;70.18;100184.66;1715859;82;21046;-67
2021/06/07 02:15:59;;;;;;;10.63;5.70;;;;;;;15.84;70.13;100187.81;1741351;81;21023;-66
2021/06/07 02:18:25;;;;;;;8.90;5.92;;;;;;;15.78;70.15;100187.97;1724052;80;21009;-66
2021/06/07 02:20:52;;;;;;;8.25;5.00;;;;;;;15.78;70.20;100184.47;1747076;81;22007;-66
2021/06/07 02:23:20;;;;;;;7.65;4.45;;;;;;;15.85;70.17;100184.66;1738054;82;21039;-67
2021/06/07 02:25:46;;;;;;;9.30;5.50;;;;;;;15.93;70.05;100182.84;1743700;80;21043;-68
2021/06/07 02:28:14;;;;;;;10.70;5.22;;;;;;;15.98;69.94;100187.16;1750133;81;21538;-66
2021/06/07 02:30:41;;;;;;;8.35;5.42;;;;;;;16.01;69.90;100185.20;1748660;81;21057;-67
2021/06/07 02:33:07;;;;;;;9.20;5.35;;;;;;;16.01;70.03;100184.70;1746920;81;21484;-67
2021/06/07 02:35:34;;;;;;;8.63;5.62;;;;;;;16.05;70.04;100187.34;1755769;81;21101;-68
2021/06/07 02:38:01;;;;;;;9.83;5.25;;;;;;;16.10;69.96;100194.31;1748232;81;21103;-67
2021/06/07 02:40:29;;;;;;;8.13;5.05;;;;;;;16.14;69.83;100190.86;1731331;81;21071;-66
2021/06/07 02:42:57;;;;;;;7.42;5.03;;;;;;;16.21;69.65;100191.86;1756770;81;21018;-67
2021/06/07 02:45:24;;;;;;;8.00;5.00;;;;;;;16.25;69.63;100196.34;1751736;79;21059;-67
2021/06/07 02:47:51;;;;;;;6.95;4.70;;;;;;;16.27;69.71;100193.87;1716891;81;21102;-66
2021/06/07 02:50:22;;;;;;;8.75;5.10;;;;;;;16.30;69.71;100190.04;1755258;81;21083;-67
2021/06/07 02:52:48;;;;;;;8.43;5.55;;;;;;;16.30;69.83;100198.00;1756394;81;21154;-67
2021/06/07 02:55:26;;;;;;;9.05;5.65;;;;;;;16.31;69.85;100197.84;1755975;81;21127;-67
2021/06/07 02:57:53;;;;;;;11.95;6.17;;;;;;;16.34;69.75;100195.37;1753044;81;21068;-66
2021/06/07 03:00:25;;;;;;;8.15;5.17;;;;;;;16.34;69.61;100201.50;1760831;81;21440;-67
2021/06/07 03:02:55;;;;;;;8.15;5.08;;;;;;;16.34;69.57;100196.70;1754297;81;20997;-66
2021/06/07 03:05:21;;;;;;;9.93;5.50;;;;;;;16.40;69.50;100197.34;1738259;81;21308;-66
2021/06/07 03:07:47;;;;;;;9.40;4.62;;;;;;;16.45;69.37;100200.84;1745588;81;21056;-66
2021/06/07 03:10:15;;;;;;;10.60;5.35;;;;;;;16.48;69.36;100197.34;1750710;79;21020;-67
2021/06/07 03:12:42;;;;;;;7.17;5.30;;;;;;;16.53;69.35;100196.86;1746381;79;21059;-67
2021/06/07 03:15:10;;;;;;;8.48;5.60;;;;;;;16.54;69.32;100193.19;1742715;81;21057;-67
2021/06/07 03:17:37;;;;;;;8.55;5.60;;;;;;;16.56;69.19;100194.35;1744698;81;21136;-67
2021/06/07 03:20:10;;;;;;;10.85;6.22;;;;;;;16.55;69.21;100196.70;1744362;81;22352;-66
2021/06/07 03:22:37;;;;;;;8.13;5.58;;;;;;;16.55;69.21;100202.83;1749842;81;21635;-67
2021/06/07 03:25:04;;;;;;;10.72;5.62;;;;;;;16.59;69.33;100200.16;1743181;81;21107;-67
2021/06/07 03:27:31;;;;;;;8.30;4.97;;;;;;;16.56;69.42;100196.53;1723182;82;21079;-66
2021/06/07 03:29:57;;;;;;;8.50;5.70;;;;;;;16.57;69.66;100195.52;1749405;81;21848;-66
2021/06/07 03:32:24;;;;;;;8.73;5.62;;;;;;;16.61;69.64;100197.34;1744445;81;21091;-67
2021/06/07 03:34:51;;;;;;;9.70;5.62;;;;;;;16.61;69.71;100194.68;1748356;81;21136;-66
2021/06/07 03:37:17;;;;;;;8.95;6.17;;;;;;;16.61;69.86;100203.50;1745430;81;21498;-67
2021/06/07 03:39:44;;;;;;;12.20;5.22;;;;;;;16.66;69.96;100200.32;1709987;81;21057;-66
2021/06/07 03:42:10;;;;;;;10.38;5.10;;;;;;;16.73;69.89;100198.68;1746766;81;21444;-68
2021/06/07 03:44:37;;;;;;;6.90;5.12;;;;;;;16.85;69.67;100197.36;1752118;81;20994;-66
2021/06/07 03:47:04;;;;;;;8.90;5.70;;;;;;;16.97;69.50;100197.02;1750733;81;21072;-67
2021/06/07 03:49:30;;;;;;;8.58;6.37;;;;;;;17.06;69.13;100193.33;1749595;81;21003;-66
2021/06/07 03:51:57;;;;;;;10.30;6.00;;;;;;;17.09;69.14;100195.14;1722557;81;21109;-67
2021/06/07 03:54:23;;;;;;;10.30;5.45;;;;;;;17.09;69.13;100199.13;1736522;81;21143;-67
2021/06/07 03:56:51;;;;;;;7.47;4.92;;;;;;;17.09;69.35;100201.78;1747584;79;20995;-69
2021/06/07 03:59:18;;;;;;;7.83;5.45;;;;;;;17.12;69.27;100199.81;1752615;79;21041;-67
2021/06/07 04:01:46;;;;;;;8.33;5.28;;;;;;;17.15;69.07;100204.28;1735381;79;21082;-67
2021/06/07 04:04:13;;;;;;;7.60;5.83;;;;;;;17.16;69.27;100205.11;1752602;81;21259;-69
2021/06/07 04:06:39;;;;;;;10.20;5.33;;;;;;;17.14;69.39;100209.27;1732547;81;21069;-68
2021/06/07 04:09:07;;;;;;;10.70;5.92;;;;;;;17.13;69.52;100204.11;1745622;81;20990;-69
2021/06/07 04:11:33;;;;;;;9.38;5.65;;;;;;;17.13;69.65;100208.95;1744031;79;21052;-71
2021/06/07 04:14:00;;;;;;;8.80;5.70;;;;;;;17.12;69.83;100213.92;1717830;81;21104;-69
2021/06/07 04:16:26;;;;;;;10.30;6.62;;;;;;;17.12;69.71;100209.94;1744239;79;21062;-69
2021/06/07 04:18:52;;;;;;;7.72;5.58;;;;;;;17.16;69.66;100209.91;1724694;81;21254;-67
2021/06/07 04:21:19;;;;;;;7.42;5.67;;;;;;;17.19;69.76;100210.91;1748722;79;21057;-70
2021/06/07 04:23:46;;;;;;;9.68;6.37;;;;;;;17.22;69.57;100213.73;1738797;79;21733;-69
2021/06/07 04:26:14;;;;;;;9.95;6.97;;;;;;;17.18;69.64;100213.73;1740794;81;21063;-67
2021/06/07 04:28:41;;;;;;;8.75;5.83;;;;;;;17.11;69.87;100218.08;1755784;81;21101;-69
2021/06/07 04:31:07;;;;;;;9.75;6.03;;;;;;;17.05;70.08;100218.27;1723683;81;22018;-68
2021/06/07 04:33:33;;;;;;;7.92;5.05;;;;;;;17.02;70.15;100214.10;1739168;81;20971;-69
2021/06/07 04:36:00;;;;;;;7.17;5.15;;;;;;;17.09;70.01;100215.08;1746287;79;21031;-69
2021/06/07 04:38:26;;;;;;;9.25;5.60;;;;;;;17.15;69.90;100218.91;1720042;81;21073;-70
2021/06/07 04:40:53;;;;;;;7.30;5.35;;;;;;;17.21;69.81;100213.40;1725114;81;21053;-69
2021/06/07 04:43:19;;;;;;;8.75;5.87;;;;;;;17.27;69.66;100216.72;1747067;79;21908;-69
2021/06/07 04:45:46;;;;;;;8.23;5.72;;;;;;;17.30;69.54;100214.20;1743756;79;21069;-69
2021/06/07 04:48:13;;;;;;;9.70;5.42;;;;;;;17.33;69.54;100224.02;1746291;79;21627;-68
2021/06/07 04:50:40;;;;;;;9.50;5.58;;;;;;;17.34;69.61;100224.33;1752324;79;21045;-68
2021/06/07 04:53:09;;;;;;;9.38;5.65;;;;;;;17.34;69.71;100224.84;1744852;81;21596;-68
2021/06/07 04:55:49;;;;;;;9.78;6.17;;;;;;;17.39;69.57;100224.64;1742143;81;21158;-68
2021/06/07 04:58:27;;;;;;;7.65;5.58;;;;;;;17.46;69.24;100224.79;1748413;81;21524;-69
2021/06/07 05:00:59;;;;;;;9.70;6.33;;;;;;;17.52;69.15;100220.13;1706865;82;21057;-68
2021/06/07 05:03:26;;;;;;;9.68;5.97;;;;;;;17.55;69.05;100220.27;1736265;81;21755;-69
2021/06/07 05:05:57;;;;;;;10.50;7.28;;;;;;;17.51;69.12;100225.11;1745576;81;20955;-72
2021/06/07 05:08:24;;;;;;;10.70;7.00;;;;;;;17.46;69.21;100214.97;1740741;79;21122;-69
2021/06/07 05:10:52;;;;;;;11.33;5.85;;;;;;;17.45;69.74;100218.65;1719706;79;21011;-68
2021/06/07 05:13:19;;;;;;;9.15;6.03;;;;;;;17.54;69.70;100222.61;1740021;79;21041;-68
2021/06/07 05:15:46;;;;;;;8.73;6.33;;;;;;;17.62;69.50;100219.42;1717769;81;21732;-68
2021/06/07 05:18:12;;;;;;;9.43;6.20;;;;;;;17.71;69.32;100220.72;1746936;79;21059;-68
2021/06/07 05:20:39;;;;;;;10.85;5.90;;;;;;;17.75;69.03;100219.34;1718418;81;21092;-69
2021/06/07 05:23:05;;;;;;;10.15;6.00;;;;;;;17.77;69.41;100219.52;1746390;81;21076;-69
2021/06/07 05:25:33;;;;;;;12.93;6.62;;;;;;;17.82;69.59;100219.00;1753793;81;21497;-68
2021/06/07 05:28:00;;;;;;;9.93;5.78;;;;;;;17.89;69.70;100225.31;1721323;81;21058;-67
2021/06/07 05:30:28;;;;;;;10.55;5.85;;;;;;;17.96;69.25;100227.59;1755260;81;21015;-70
2021/06/07 05:32:55;;;;;;;7.70;5.55;;;;;;;18.05;69.08;100222.23;1721795;81;21078;-69
2021/06/07 05:35:25;;;;;;;6.87;5.15;;;;;;;18.09;68.86;100230.17;1717673;81;21018;-68
2021/06/07 05:37:52;;;;;;;7.92;5.53;;;;;;;18.14;68.58;100223.34;1754385;81;20976;-70
2021/06/07 05:40:19;;;;;;;8.10;6.15;;;;;;;18.15;68.62;100224.16;1724895;81;21604;-69
2021/06/07 05:42:46;;;;;;;9.48;6.30;;;;;;;18.13;68.57;100232.83;1748625;79;21462;-68
2021/06/07 05:45:13;;;;;;;8.93;5.83;;;;;;;18.10;68.93;100232.66;1735629;81;21080;-68
2021/06/07 05:47:39;;;;;;;8.43;6.50;;;;;;;18.18;69.21;100230.47;1741930;79;21944;-67
2021/06/07 05:50:10;;;;;;;10.35;5.45;;;;;;;18.34;69.20;100231.70;1717405;79;21065;-69
2021/06/07 05:52:45;;;;;;;9.60;6.37;;;;;;;18.57;68.75;100234.84;1743859;79;20898;-67
2021/06/07 05:55:06;;;;;;;8.98;6.30;;;;;;;18.72;67.95;100233.56;1738860;81;22079;-68
2021/06/07 05:57:33;;;;;;;8.83;6.83;;;;;;;18.78;67.43;100244.84;1744528;79;21156;-68
2021/06/07 05:59:59;;;;;;;11.53;6.15;;;;;;;18.74;67.26;100236.87;1741049;79;21478;-67
2021/06/07 06:02:26;;;;;;;10.32;6.80;;;;;;;18.67;67.70;100228.77;1742787;79;21987;-65
2021/06/07 06:04:52;;;;;;;9.63;6.03;;;;;;;18.73;67.63;100232.56;1745065;79;20934;-67
2021/06/07 06:07:18;;;;;;;8.75;5.95;;;;;;;18.88;67.39;100235.30;1747746;79;21547;-64
2021/06/07 06:09:45;;;;;;;8.13;6.62;;;;;;;18.94;67.15;100239.89;1746600;79;21091;-65
2021/06/07 06:12:11;;;;;;;9.53;6.45;;;;;;;19.00;67.15;100237.02;1743207;79;21537;-67
2021/06/07 06:14:38;;;;;;;14.28;6.08;;;;;;;19.06;66.80;100228.28;1743181;81;21015;-66
2021/06/07 06:17:06;;;;;;;13.08;6.45;;;;;;;19.10;66.60;100237.07;1749880;81;21066;-66
2021/06/07 06:19:32;;;;;;;9.60;5.95;;;;;;;19.18;66.65;100233.50;1742109;81;20924;-68
2021/06/07 06:22:04;;;;;;;10.30;6.20;;;;;;;19.29;66.12;100229.55;1744134;79;21061;-66
2021/06/07 06:24:30;;;;;;;12.63;6.37;;;;;;;19.36;65.82;100234.45;1746490;81;20991;-66
2021/06/07 06:26:56;;;;;;;9.33;5.50;;;;;;;19.36;65.78;100230.45;1736825;81;21002;-66
2021/06/07 06:29:22;;;;;;;10.63;6.42;;;;;;;19.34;65.91;100228.48;1748821;81;20998;-66
2021/06/07 06:31:49;;;;;;;9.40;5.62;;;;;;;19.35;65.79;100222.63;1749562;81;21555;-67
2021/06/07 06:34:15;;;;;;;10.38;5.15;;;;;;;19.36;65.79;100226.45;1742096;79;22407;-66
2021/06/07 06:36:41;;;;;;;8.53;5.05;;;;;;;19.42;65.64;100224.39;1744411;81;21070;-66
2021/06/07 06:39:08;;;;;;;7.50;4.90;;;;;;;19.54;65.38;100237.28;1712802;81;21097;-67
2021/06/07 06:41:35;;;;;;;7.67;5.30;;;;;;;19.62;64.49;100234.52;1710338;81;21062;-67
2021/06/07 06:44:04;;;;;;;7.85;5.87;;;;;;;19.63;64.44;100230.81;1747358;81;21721;-67
2021/06/07 06:46:31;;;;;;;9.78;6.03;;;;;;;19.63;64.55;100238.82;1738739;81;21205;-68
2021/06/07 06:48:58;;;;;;;8.10;5.67;;;;;;;19.62;64.60;100234.52;1743901;79;20995;-67
2021/06/07 06:51:25;;;;;;;10.05;6.58;;;;;;;19.64;64.50;100233.81;1742150;79;21922;-68
2021/06/07 06:53:53;;;;;;;11.78;5.75;;;;;;;19.64;64.39;100240.48;1712411;81;21077;-68
2021/06/07 06:56:20;;;;;;;9.98;5.40;;;;;;;19.69;64.64;100242.09;1743085;81;21057;-67
2021/06/07 06:58:46;;;;;;;7.40;5.70;;;;;;;19.76;64.64;100249.70;1741088;81;21124;-66
2021/06/07 07:01:14;;;;;;;8.73;5.40;;;;;;;19.81;64.99;100249.97;1718735;81;21042;-65
2021/06/07 07:03:40;;;;;;;6.85;4.80;;;;;;;19.81;64.46;100249.97;1747638;79;21045;-67
2021/06/07 07:06:07;;;;;;;7.25;5.12;;;;;;;19.82;64.97;100244.95;1746064;79;21057;-66
2021/06/07 07:08:34;;;;;;;8.90;5.55;;;;;;;19.94;65.21;100242.63;1745861;81;21636;-64
2021/06/07 07:11:02;;;;;;;7.45;5.12;;;;;;;20.02;63.91;100241.67;1741840;79;21065;-65
2021/06/07 07:13:29;;;;;;;7.37;5.22;;;;;;;20.06;63.88;100240.30;1712231;81;21065;-66
2021/06/07 07:15:56;;;;;;;12.55;5.30;;;;;;;20.15;63.61;100235.14;1744300;81;21128;-66
2021/06/07 07:18:23;;;;;;;8.25;5.15;;;;;;;20.21;63.70;100232.25;1747234;79;21037;-67
2021/06/07 07:20:50;;;;;;;10.00;5.53;;;;;;;20.28;63.60;100234.98;1739984;79;21160;-67
2021/06/07 07:23:16;;;;;;;7.12;5.15;;;;;;;20.29;63.23;100236.14;1720925;81;21912;-67
2021/06/07 07:25:47;;;;;;;7.78;5.12;;;;;;;20.31;63.46;100240.77;1741559;79;22203;-66
2021/06/07 07:28:12;;;;;;;7.28;5.08;;;;;;;20.31;63.26;100246.12;1744845;79;21559;-66
2021/06/07 07:30:38;;;;;;;7.40;4.72;;;;;;;20.31;62.42;100246.12;1744750;81;21485;-66
2021/06/07 07:33:06;;;;;;;8.05;4.75;;;;;;;20.36;62.42;100237.54;1741371;81;21107;-66
2021/06/07 07:35:34;;;;;;;6.83;4.42;;;;;;;20.44;61.85;100245.40;1743612;79;21087;-68
2021/06/07 07:38:00;;;;;;;7.35;4.87;;;;;;;20.55;61.62;100244.89;1727678;81;21054;-66
2021/06/07 07:40:27;;;;;;;7.80;5.15;;;;;;;20.67;61.11;100247.91;1743908;81;21634;-66
2021/06/07 07:42:57;;;;;;;6.72;4.35;;;;;;;20.75;60.80;100236.27;1744250;81;21562;-67
2021/06/07 07:45:26;;;;;;;7.58;4.60;;;;;;;20.80;60.46;100241.86;1747213;81;20899;-67
2021/06/07 07:47:55;;;;;;;7.10;4.65;;;;;;;20.81;60.39;100231.98;1742112;81;21118;-67
2021/06/07 07:50:22;;;;;;;11.05;6.50;;;;;;;20.86;60.47;100230.37;1710112;81;20979;-67
2021/06/07 07:52:49;;;;;;;8.58;4.75;;;;;;;20.96;60.26;100238.06;1744091;79;20922;-66
2021/06/07 07:55:19;;;;;;;6.85;4.40;;;;;;;21.04;59.14;100239.25;1722625;81;20987;-67
2021/06/07 07:57:46;;;;;;;7.92;4.12;;;;;;;21.06;59.40;100235.86;1747556;81;21093;-66
2021/06/07 08:00:15;;;;;;;6.87;4.80;;;;;;;21.16;59.36;100243.55;1744404;79;21123;-67
2021/06/07 08:02:42;;;;;;;7.60;4.22;;;;;;;21.23;59.15;100242.26;1712688;81;21094;-66
2021/06/07 08:05:10;;;;;;;8.80;4.22;;;;;;;21.28;58.24;100233.98;1742192;81;21062;-66
2021/06/07 08:07:36;;;;;;;9.88;4.12;;;;;;;21.29;58.62;100236.95;1739082;79;21016;-67
2021/06/07 08:10:05;;;;;;;5.72;3.27;;;;;;;21.36;58.36;100230.81;1711857;79;21705;-66
2021/06/07 08:12:33;;;;;;;5.50;3.40;;;;;;;21.51;57.49;100231.55;1742001;79;21154;-66
2021/06/07 08:15:02;;;;;;;5.53;3.52;;;;;;;21.68;57.56;100242.22;1745644;81;21018;-65
2021/06/07 08:17:29;;;;;;;6.47;3.72;;;;;;;21.84;56.40;100238.91;1745504;79;21051;-66
2021/06/07 08:19:55;;;;;;;11.48;3.70;;;;;;;21.92;55.48;100230.67;1744633;79;21364;-68
2021/06/07 08:22:22;;;;;;;6.80;3.80;;;;;;;22.00;55.52;100231.02;1718739;81;21046;-67
2021/06/07 08:24:48;;;;;;;6.00;3.45;;;;;;;22.06;54.51;100234.23;1746495;79;21121;-64
2021/06/07 08:27:14;;;;;;;5.00;3.17;;;;;;;22.10;54.58;100230.11;1744472;79;21612;-65
2021/06/07 08:29:41;;;;;;;6.35;3.47;;;;;;;22.17;54.82;100228.27;1739232;79;21053;-65
2021/06/07 08:32:08;;;;;;;6.95;3.70;;;;;;;22.17;53.76;100226.92;1747162;81;21548;-66
2021/06/07 08:34:35;;;;;;;5.62;3.45;;;;;;;22.18;53.44;100225.09;1743834;81;21101;-66
2021/06/07 08:37:01;;;;;;;5.95;3.67;;;;;;;22.20;53.71;100225.19;1742955;81;21110;-65
2021/06/07 08:39:28;;;;;;;6.80;3.60;;;;;;;22.23;53.51;100232.82;1749205;79;21107;-66
2021/06/07 08:41:57;;;;;;;5.53;3.12;;;;;;;22.25;53.89;100229.94;1750212;81;21611;-65
2021/06/07 08:44:25;;;;;;;6.35;3.47;;;;;;;22.25;54.32;100227.27;1734433;81;21084;-67
2021/06/07 08:46:51;;;;;;;4.95;2.95;;;;;;;22.25;54.84;100229.42;1750870;79;21466;-67
2021/06/07 08:49:18;;;;;;;7.62;3.12;;;;;;;22.26;55.00;100223.56;1752989;81;21145;-65
2021/06/07 08:51:45;;;;;;;4.90;2.92;;;;;;;22.28;55.31;100226.89;1748163;79;22122;-66
2021/06/07 08:54:11;;;;;;;5.53;3.70;;;;;;;22.26;55.17;100228.92;1733297;81;21097;-66
2021/06/07 08:56:40;;;;;;;4.92;3.30;;;;;;;22.22;55.57;100227.66;1758278;79;21053;-67
2021/06/07 08:59:06;;;;;;;5.12;2.75;;;;;;;22.19;55.72;100224.05;1749552;79;20994;-65
2021/06/07 09:01:34;;;;;;;5.30;3.40;;;;;;;22.16;55.89;100229.31;1750428;81;21141;-67
2021/06/07 09:04:13;;;;;;;5.15;3.37;;;;;;;22.14;55.78;100225.17;1758917;79;21697;-66
2021/06/07 09:06:44;;;;;;;5.40;3.35;;;;;;;22.16;56.67;100229.84;1760015;79;20891;-66
2021/06/07 09:09:13;;;;;;;5.10;2.87;;;;;;;22.21;57.21;100226.03;1756014;81;22409;-67
2021/06/07 09:11:56;;;;;;;6.10;3.37;;;;;;;22.36;54.91;100228.05;1753959;79;22235;-66
2021/06/07 09:14:28;;;;;;;7.12;3.08;;;;;;;22.54;53.63;100218.03;1757963;79;22463;-66
2021/06/07 09:16:55;;;;;;;8.65;3.55;;;;;;;22.68;53.18;100217.55;1734807;81;21017;-66
2021/06/07 09:19:29;;;;;;;6.55;3.47;;;;;;;22.80;53.31;100215.88;1725102;79;21104;-67
2021/06/07 09:22:15;;;;;;;5.65;2.98;;;;;;;22.94;52.64;100215.88;1749167;79;21651;-66
2021/06/07 09:25:11;;;;;;;6.28;2.90;;;;;;;23.06;51.40;100208.01;1732049;81;21535;-66
2021/06/07 09:27:39;;;;;;;6.50;3.20;;;;;;;23.20;49.74;100202.97;1752931;81;21140;-66
2021/06/07 09:30:29;;;;;;;7.70;3.17;;;;;;;23.29;50.11;100201.69;1755395;81;21524;-67
2021/06/07 09:33:24;;;;;;;7.50;3.27;;;;;;;23.39;49.29;100199.09;1754491;81;22275;-66
2021/06/07 09:36:22;;;;;;;6.92;2.95;;;;;;;23.49;49.24;100202.97;1720419;79;21555;-67
2021/06/07 09:39:15;;;;;;;4.92;2.83;;;;;;;23.59;49.04;100200.33;1749852;79;21038;-67
2021/06/07 09:41:58;;;;;;;8.33;2.35;;;;;;;23.71;48.22;100202.14;1745801;79;21100;-67
2021/06/07 09:44:48;;;;;;;7.62;3.00;;;;;;;23.76;46.29;100190.77;1740596;79;21164;-66
2021/06/07 09:47:35;;;;;;;9.75;3.05;;;;;;;23.78;46.19;100190.03;1725808;81;21062;-67
2021/06/07 09:50:04;;;;;;;5.40;2.87;;;;;;;23.75;45.55;100183.73;1745391;79;20935;-67
2021/06/07 10:05:15;;;;;;;5.80;3.20;;;;;;;24.94;43.64;100160.25;1754068;78;63463;-66
2021/06/07 10:07:47;;;;;;;6.40;3.35;;;;;;;24.99;42.64;100166.59;1762000;80;21494;-64
2021/06/07 10:10:20;;;;;;;4.72;2.55;;;;;;;24.90;42.55;100161.72;1730398;81;21793;-67
2021/06/07 10:12:47;;;;;;;9.20;3.50;;;;;;;24.81;43.11;100147.23;1727374;81;21087;-65
2021/06/07 10:15:17;;;;;;;7.33;2.80;;;;;;;24.77;43.58;100147.90;1722736;81;22550;-66
2021/06/07 10:17:46;;;;;;;6.92;3.02;;;;;;;24.69;43.65;100144.15;1732432;81;21031;-69
2021/06/07 10:22:40;;;;;;;8.78;3.08;;;;;;;24.56;42.86;100137.86;1733833;80;21091;-66
2021/06/07 10:25:07;;;;;;;5.42;2.60;;;;;;;24.51;42.87;100138.17;1718343;82;20890;-65
2021/06/07 10:27:35;;;;;;;7.10;3.00;;;;;;;24.50;43.76;100135.20;1726489;81;21740;-68
2021/06/07 10:30:03;;;;;;;4.80;2.62;;;;;;;24.47;42.96;100135.10;1710842;82;21126;-65
2021/06/07 10:32:32;;;;;;;5.08;2.75;;;;;;;24.43;43.48;100128.53;1718467;81;21134;-67
2021/06/07 10:35:04;;;;;;;6.15;2.85;;;;;;;24.42;43.27;100129.56;1678038;82;21518;-66
2021/06/07 10:37:32;;;;;;;5.58;2.75;;;;;;;24.44;43.66;100126.13;1723960;81;21723;-69
2021/06/07 10:40:24;;;;;;;5.87;2.80;;;;;;;24.42;43.14;100118.80;1713936;80;21131;-66
2021/06/07 10:42:59;;;;;;;5.47;3.20;;;;;;;24.38;43.72;100127.02;1704469;82;21074;-67
2021/06/07 10:45:29;;;;;;;5.80;3.47;;;;;;;24.39;42.91;100121.93;1720889;81;21110;-65
2021/06/07 10:47:56;;;;;;;6.03;3.05;;;;;;;24.39;43.25;100124.09;1724346;81;21157;-64
2021/06/07 10:50:30;;;;;;;5.35;2.58;;;;;;;24.39;43.52;100124.62;1715021;80;21567;-64
2021/06/07 10:53:02;;;;;;;5.87;2.45;;;;;;;24.42;42.48;100114.77;1722637;81;21479;-65
2021/06/07 10:55:41;;;;;;;5.67;2.35;;;;;;;24.42;42.74;100119.63;1703546;81;21638;-62
2021/06/07 10:58:15;;;;;;;5.80;2.40;;;;;;;24.42;42.98;100116.93;1728329;81;21079;-59
2021/06/07 11:00:49;;;;;;;5.10;2.10;;;;;;;24.47;43.49;100111.71;1709300;80;21120;-65
2021/06/07 11:03:36;;;;;;;5.65;2.35;;;;;;;24.57;42.26;100107.20;1710436;82;21236;-64
2021/06/07 11:06:06;;;;;;;6.58;2.90;;;;;;;24.63;41.94;100114.93;1715684;81;21115;-66
2021/06/07 11:08:34;;;;;;;5.53;2.65;;;;;;;24.59;41.93;100114.53;1715923;81;21526;-63
2021/06/07 11:11:08;;;;;;;4.35;2.35;;;;;;;24.53;42.26;100115.41;1698162;83;21130;-63
2021/06/07 11:13:50;;;;;;;5.30;2.10;;;;;;;24.49;41.78;100111.49;1718996;81;21102;-65
2021/06/07 11:16:32;;;;;;;4.05;1.65;;;;;;;24.44;41.06;100110.84;1735934;80;21068;-64
2021/06/07 11:19:01;;;;;;;3.65;1.47;;;;;;;24.39;41.64;100110.64;1735891;81;21334;-63
2021/06/07 11:21:35;;;;;;;5.30;1.75;;;;;;;24.37;42.14;100106.02;1741623;80;21593;-67
2021/06/07 11:24:23;;;;;;;4.50;2.05;;;;;;;24.39;42.07;100101.23;1720084;81;21095;-64
2021/06/07 11:26:49;;;;;;;5.00;2.10;;;;;;;24.42;41.95;100094.60;1715459;82;21255;-65
2021/06/07 11:29:17;;;;;;;4.10;1.90;;;;;;;24.45;41.93;100092.29;1688697;83;21574;-67
2021/06/07 11:31:57;;;;;;;4.15;1.87;;;;;;;24.48;42.14;100091.86;1734103;81;21099;-64
2021/06/07 11:34:44;;;;;;;4.50;2.10;;;;;;;24.54;41.52;100087.98;1716067;81;21091;-64
2021/06/07 11:37:16;;;;;;;4.83;2.00;;;;;;;24.58;41.28;100083.81;1706681;82;21122;-59
2021/06/07 11:39:48;;;;;;;3.77;2.00;;;;;;;24.59;41.58;100080.91;1725360;82;21142;-66
2021/06/07 11:42:16;;;;;;;5.20;2.47;;;;;;;24.61;41.90;100068.08;1691757;82;21125;-66
2021/06/07 11:44:58;;;;;;;3.70;1.60;;;;;;;24.69;40.77;100065.59;1731007;81;21095;-62
2021/06/07 11:47:28;;;;;;;4.35;1.72;;;;;;;24.74;40.75;100067.63;1728398;81;21070;-60
2021/06/07 11:50:03;;;;;;;3.67;1.60;;;;;;;24.75;40.79;100070.09;1716229;81;21088;-65